Time;durP1;ratioP1;P1;durP2;ratioP2;P2;SDS_P1;SDS_P2;PMS_P1;PMS_P2;Temp;Humidity;BMP_temperature;BMP_pressure;BME280_temperature;BME280_humidity;BME280_pressure;Samples;Min_cycle;Max_cycle;Signal;HPM_P1;HPM_P2
2024/04/12 00:02:08;;;;;;;5.87;2.07;;;9.70;99.90;;;10.51;100.00;99698.25;5494160;25;20468;-76
2024/04/12 00:04:40;;;;;;;6.20;2.00;;;9.60;99.90;;;10.53;100.00;99701.53;5490989;26;20585;-76
2024/04/12 00:07:13;;;;;;;5.10;1.80;;;9.60;99.90;;;10.47;100.00;99696.06;5485873;26;21263;-76
2024/04/12 00:09:52;;;;;;;2.67;1.60;;;9.50;99.90;;;10.43;100.00;99692.91;5489666;25;20537;-76
2024/04/12 00:12:26;;;;;;;3.83;2.00;;;9.50;99.90;;;10.35;100.00;99694.59;5486069;26;24239;-76
2024/04/12 00:15:15;;;;;;;3.60;2.03;;;9.40;99.90;;;10.32;100.00;99705.34;5486391;26;20473;-75
2024/04/12 00:17:45;;;;;;;3.57;1.60;;;9.30;99.90;;;10.25;100.00;99692.03;5495931;26;21100;-76
2024/04/12 00:20:18;;;;;;;3.93;1.90;;;9.30;99.90;;;10.23;100.00;99696.59;5487813;26;20878;-76
2024/04/12 00:22:48;;;;;;;2.73;1.73;;;9.30;99.90;;;10.30;100.00;99697.66;5488147;26;21471;-75
2024/04/12 00:25:18;;;;;;;8.13;1.90;;;9.30;99.90;;;10.37;100.00;99690.06;5494856;25;20476;-75
2024/04/12 00:27:49;;;;;;;5.73;1.83;;;9.50;99.90;;;10.39;100.00;99691.53;5491104;26;20472;-76
2024/04/12 00:30:37;;;;;;;4.53;1.63;;;9.50;99.90;;;10.32;100.00;99687.84;5491142;26;20479;-75
2024/04/12 00:33:09;;;;;;;2.77;1.70;;;9.40;99.90;;;10.27;100.00;99692.72;5493722;26;20806;-76
2024/04/12 00:35:41;;;;;;;4.07;1.83;;;9.30;99.90;;;10.25;100.00;99688.56;5495421;26;20480;-76
2024/04/12 00:38:09;;;;;;;3.37;1.70;;;9.30;99.90;;;10.26;100.00;99685.84;5493915;26;21093;-75
2024/04/12 00:40:46;;;;;;;2.90;2.50;;;9.40;99.90;;;10.29;100.00;99688.16;5494048;25;20492;-75
2024/04/12 00:43:18;;;;;;;4.27;1.90;;;9.40;99.90;;;10.31;100.00;99691.44;5492505;26;21160;-76
2024/04/12 00:45:54;;;;;;;5.90;2.60;;;9.40;99.90;;;10.35;100.00;99695.41;5494132;26;21043;-75
2024/04/12 00:48:21;;;;;;;6.17;2.97;;;9.40;99.90;;;10.34;100.00;99692.97;5490023;26;20547;-75
2024/04/12 00:50:54;;;;;;;2.17;1.80;;;9.40;99.90;;;10.27;100.00;99687.50;5492343;26;20526;-76
2024/04/12 00:53:28;;;;;;;4.37;1.90;;;9.30;99.90;;;10.22;100.00;99688.88;5492112;26;21010;-75
2024/04/12 00:56:03;;;;;;;4.00;1.97;;;9.20;99.90;;;10.20;100.00;99680.38;5491645;26;20473;-75
2024/04/12 00:58:33;;;;;;;3.60;1.70;;;9.20;99.90;;;10.22;100.00;99686.25;5495533;26;20541;-75
2024/04/12 01:01:10;;;;;;;2.60;1.80;;;9.30;99.90;;;10.22;100.00;99687.09;5494317;26;21225;-76
2024/04/12 01:03:46;;;;;;;5.60;1.70;;;9.30;99.90;;;10.10;100.00;99691.63;5494585;25;21073;-76
2024/04/12 01:06:21;;;;;;;3.23;1.77;;;9.10;99.90;;;10.11;100.00;99682.00;5496308;26;20493;-76
2024/04/12 01:08:51;;;;;;;3.77;2.30;;;9.10;99.90;;;10.13;100.00;99680.88;5498725;26;20583;-76
2024/04/12 01:11:24;;;;;;;8.20;1.60;;;9.20;99.90;;;10.15;100.00;99678.16;5498358;26;20477;-76
2024/04/12 01:13:56;;;;;;;9.70;1.67;;;9.20;99.90;;;10.16;100.00;99671.97;5493838;26;21094;-75
2024/04/12 01:16:27;;;;;;;3.20;2.07;;;9.20;99.90;;;10.19;100.00;99669.06;5498300;26;20471;-75
2024/04/12 01:18:55;;;;;;;3.73;2.00;;;9.20;99.90;;;10.21;100.00;99658.47;5497242;26;20594;-75
2024/04/12 01:21:26;;;;;;;2.57;1.80;;;9.20;99.90;;;10.16;100.00;99658.91;5497122;26;20560;-75
2024/04/12 01:23:54;;;;;;;4.73;1.60;;;9.20;99.90;;;10.07;100.00;99655.31;5496014;26;22350;-76
2024/04/12 01:26:27;;;;;;;3.77;1.90;;;9.10;99.90;;;9.99;100.00;99659.63;5494745;25;20474;-75
2024/04/12 01:28:57;;;;;;;2.40;1.67;;;9.00;99.90;;;9.85;100.00;99660.94;5499168;26;20568;-76
2024/04/12 01:31:28;;;;;;;2.83;1.50;;;8.80;99.90;;;9.82;100.00;99645.50;5494266;26;20586;-75
2024/04/12 01:33:55;;;;;;;3.03;1.57;;;8.80;99.90;;;9.75;100.00;99656.69;5494238;26;20477;-76
2024/04/12 01:36:27;;;;;;;3.93;1.73;;;8.70;99.90;;;9.75;100.00;99654.91;5496524;25;20475;-76
2024/04/12 01:38:57;;;;;;;4.10;1.90;;;8.80;99.90;;;9.79;100.00;99653.63;5489561;26;20572;-75
2024/04/12 01:41:31;;;;;;;3.80;2.00;;;8.80;99.90;;;9.79;100.00;99655.44;5493490;25;20543;-75
2024/04/12 01:44:04;;;;;;;3.83;2.00;;;8.80;99.90;;;9.81;100.00;99663.97;5496000;26;20559;-76
2024/04/12 01:46:37;;;;;;;1.97;1.47;;;8.80;99.90;;;9.77;100.00;99654.75;5494409;25;20516;-75
2024/04/12 01:49:10;;;;;;;3.97;1.77;;;8.80;99.90;;;9.75;100.00;99661.91;5497875;26;20545;-76
2024/04/12 01:51:41;;;;;;;6.90;1.53;;;8.80;99.90;;;9.72;100.00;99664.81;5494991;26;20464;-76
2024/04/12 01:54:13;;;;;;;2.47;1.60;;;8.70;99.90;;;9.71;100.00;99658.78;5497999;26;20532;-76
2024/04/12 01:56:50;;;;;;;2.40;1.70;;;8.70;99.90;;;9.72;100.00;99659.59;5498431;26;20591;-75
2024/04/12 01:59:21;;;;;;;4.87;1.83;;;8.80;99.90;;;9.69;100.00;99658.06;5493453;26;21034;-76
2024/04/12 02:01:53;;;;;;;2.87;2.03;;;8.80;99.90;;;9.63;100.00;99671.69;5495613;26;21094;-75
2024/04/12 02:04:21;;;;;;;5.00;1.90;;;8.70;99.90;;;9.59;100.00;99663.31;5493948;25;20470;-75
2024/04/12 02:06:52;;;;;;;5.20;1.87;;;8.60;99.90;;;9.63;100.00;99663.03;5495033;26;21155;-77
2024/04/12 02:09:20;;;;;;;4.50;1.70;;;8.60;99.90;;;9.64;100.00;99662.06;5493138;26;20485;-76
2024/04/12 02:11:53;;;;;;;4.73;2.07;;;8.60;99.90;;;9.67;100.00;99656.56;5494276;25;20587;-75
2024/04/12 02:14:22;;;;;;;5.80;1.97;;;8.80;99.90;;;9.64;100.00;99662.06;5498421;26;21010;-75
2024/04/12 02:16:53;;;;;;;2.40;1.80;;;8.70;99.90;;;9.56;100.00;99658.38;5497048;26;20475;-79
2024/04/12 02:19:21;;;;;;;2.77;1.43;;;8.60;99.90;;;9.57;100.00;99667.88;5495615;26;20481;-75
2024/04/12 02:21:52;;;;;;;3.53;1.63;;;8.60;99.90;;;9.53;100.00;99666.50;5492213;26;20485;-76
2024/04/12 02:24:20;;;;;;;4.43;1.70;;;8.60;99.90;;;9.54;100.00;99673.34;5498361;26;20482;-75
2024/04/12 02:26:53;;;;;;;2.30;1.30;;;8.70;99.90;;;9.56;100.00;99670.63;5492792;26;21989;-76
2024/04/12 02:29:21;;;;;;;7.70;2.10;;;8.60;99.90;;;9.54;100.00;99672.56;5493236;26;20514;-79
2024/04/12 02:31:52;;;;;;;2.23;1.57;;;8.60;99.90;;;9.56;100.00;99668.00;5493403;25;20518;-75
2024/04/12 02:34:19;;;;;;;2.00;1.57;;;8.70;99.90;;;9.53;100.00;99674.34;5490159;25;20525;-75
2024/04/12 02:36:49;;;;;;;6.60;1.70;;;8.50;99.90;;;9.51;100.00;99678.84;5492215;26;20532;-75
2024/04/12 02:39:22;;;;;;;2.50;1.80;;;8.50;99.90;;;9.41;100.00;99677.22;5494885;25;20582;-75
2024/04/12 02:41:55;;;;;;;9.00;1.63;;;8.40;99.90;;;9.30;100.00;99680.00;5493823;26;20609;-75
2024/04/12 02:44:25;;;;;;;3.00;2.00;;;8.30;99.90;;;9.30;100.00;99664.34;5496721;26;20468;-75
2024/04/12 02:46:58;;;;;;;1.60;1.20;;;8.30;99.90;;;9.27;100.00;99664.59;5490602;26;20527;-75
2024/04/12 02:49:25;;;;;;;3.13;1.60;;;8.30;99.90;;;9.21;100.00;99659.94;5496268;26;20984;-75
2024/04/12 02:51:59;;;;;;;3.90;1.80;;;8.20;99.90;;;9.17;100.00;99662.00;5492981;25;20472;-76
2024/04/12 02:54:27;;;;;;;3.17;1.87;;;8.20;99.90;;;9.20;100.00;99661.72;5496054;26;21756;-76
2024/04/12 02:57:02;;;;;;;8.40;1.87;;;8.30;99.90;;;9.26;100.00;99665.56;5498416;25;20591;-75
2024/04/12 02:59:29;;;;;;;4.90;2.97;;;8.40;99.90;;;9.18;100.00;99658.44;5488133;26;20499;-79
2024/04/12 03:02:00;;;;;;;4.90;1.90;;;8.30;99.90;;;9.23;100.00;99666.69;5490083;26;20553;-76
2024/04/12 03:04:30;;;;;;;5.93;2.00;;;8.40;99.90;;;9.22;100.00;99667.63;5492424;26;20536;-76
2024/04/12 03:07:08;;;;;;;3.20;1.90;;;8.40;99.90;;;9.20;100.00;99668.75;5493895;26;21159;-76
2024/04/12 03:09:40;;;;;;;7.63;2.10;;;8.40;99.90;;;9.17;100.00;99664.59;5490829;26;20545;-80
2024/04/12 03:12:12;;;;;;;2.30;1.80;;;8.30;99.90;;;9.14;100.00;99657.06;5493591;26;20484;-76
2024/04/12 03:14:42;;;;;;;2.30;1.40;;;8.20;99.90;;;9.14;100.00;99664.88;5493245;26;20780;-76
2024/04/12 03:17:11;;;;;;;2.97;1.60;;;8.20;99.90;;;9.18;100.00;99663.66;5493762;26;20537;-75
2024/04/12 03:19:42;;;;;;;3.33;1.67;;;8.20;99.90;;;9.13;100.00;99663.22;5487408;26;20532;-76
2024/04/12 03:22:10;;;;;;;3.17;1.63;;;8.30;99.90;;;9.06;100.00;99667.34;5494016;26;21073;-75
2024/04/12 03:24:41;;;;;;;2.17;1.30;;;8.20;99.90;;;8.99;100.00;99668.84;5495600;26;20526;-76
2024/04/12 03:27:13;;;;;;;4.00;1.80;;;8.10;99.90;;;8.93;100.00;99658.97;5490909;25;20597;-76
2024/04/12 03:29:43;;;;;;;5.80;1.77;;;8.10;99.90;;;8.94;100.00;99660.63;5492221;26;20491;-79
2024/04/12 03:32:12;;;;;;;2.47;1.27;;;8.00;99.90;;;8.92;100.00;99658.16;5493557;26;20479;-76
2024/04/12 03:34:43;;;;;;;2.70;1.77;;;8.10;99.90;;;8.98;100.00;99659.41;5491124;26;20477;-76
2024/04/12 03:37:23;;;;;;;2.90;1.80;;;8.00;99.90;;;9.00;100.00;99654.84;5499097;26;21355;-75
2024/04/12 03:40:00;;;;;;;9.03;1.70;;;8.10;99.90;;;9.01;100.00;99659.13;5497654;26;20482;-75
2024/04/12 03:42:33;;;;;;;2.30;1.70;;;8.10;99.90;;;8.92;100.00;99655.53;5496903;26;20482;-76
2024/04/12 03:45:12;;;;;;;2.80;1.50;;;8.00;99.90;;;8.89;100.00;99654.97;5496815;26;20479;-75
2024/04/12 03:47:44;;;;;;;3.20;1.80;;;8.00;99.90;;;8.93;100.00;99653.75;5491143;26;20520;-76
2024/04/12 03:50:13;;;;;;;4.20;2.03;;;8.00;99.90;;;8.87;100.00;99649.09;5490516;26;20648;-76
2024/04/12 03:52:44;;;;;;;8.50;1.60;;;8.00;99.90;;;8.90;100.00;99652.25;5491338;26;20536;-76
2024/04/12 03:55:12;;;;;;;3.20;1.80;;;8.00;99.90;;;8.92;100.00;99657.34;5495687;26;20519;-75
2024/04/12 03:57:45;;;;;;;8.03;1.60;;;8.00;99.90;;;8.90;100.00;99656.63;5497835;25;20583;-75
2024/04/12 04:00:16;;;;;;;4.07;1.83;;;7.90;99.90;;;8.87;100.00;99668.19;5497349;25;20603;-75
2024/04/12 04:02:48;;;;;;;2.60;1.43;;;8.00;99.90;;;8.78;100.00;99674.19;5494889;25;20984;-75
2024/04/12 04:05:25;;;;;;;1.67;1.57;;;7.90;99.90;;;8.74;100.00;99682.44;5492358;26;20533;-76
2024/04/12 04:07:54;;;;;;;4.07;1.40;;;7.90;99.90;;;8.70;100.00;99678.44;5496731;26;20539;-76
2024/04/12 04:10:25;;;;;;;4.70;1.83;;;7.80;99.90;;;8.73;100.00;99672.97;5492077;26;20534;-76
2024/04/12 04:12:56;;;;;;;4.40;1.90;;;7.80;99.90;;;8.67;100.00;99663.06;5491105;26;20500;-76
2024/04/12 04:15:27;;;;;;;1.77;1.60;;;7.80;99.90;;;8.60;100.00;99665.41;5493010;26;20488;-76
2024/04/12 04:17:55;;;;;;;1.83;1.30;;;7.80;99.90;;;8.64;100.00;99665.97;5490824;25;20497;-77
2024/04/12 04:20:27;;;;;;;10.83;2.57;;;7.80;99.90;;;8.66;100.00;99664.03;5493433;25;21024;-76
2024/04/12 04:23:02;;;;;;;4.97;1.90;;;7.80;99.90;;;8.58;100.00;99668.13;5492423;26;21070;-76
2024/04/12 04:25:34;;;;;;;1.60;1.20;;;7.70;99.90;;;8.55;100.00;99663.19;5492697;26;20542;-76
2024/04/12 04:28:09;;;;;;;2.77;1.80;;;7.70;99.90;;;8.55;100.00;99665.78;5493803;26;21100;-77
2024/04/12 04:30:41;;;;;;;1.47;1.27;;;7.70;99.90;;;8.54;100.00;99660.69;5495770;26;20565;-76
2024/04/12 04:33:12;;;;;;;4.90;1.70;;;7.70;99.90;;;8.52;100.00;99660.03;5492593;26;21280;-76
2024/04/12 04:35:44;;;;;;;2.47;1.60;;;7.70;99.90;;;8.51;100.00;99661.81;5493297;26;20539;-76
2024/04/12 04:38:14;;;;;;;2.00;1.43;;;7.60;99.90;;;8.44;100.00;99670.28;5495694;26;21027;-76
2024/04/12 04:40:45;;;;;;;3.23;1.50;;;7.60;99.90;;;8.42;100.00;99670.44;5493516;26;20522;-76
2024/04/12 04:43:17;;;;;;;5.70;2.07;;;7.60;99.90;;;8.39;100.00;99668.09;5495655;26;21079;-75
2024/04/12 04:45:48;;;;;;;4.23;1.73;;;7.60;99.90;;;8.40;100.00;99663.72;5495497;26;20534;-75
2024/04/12 04:48:16;;;;;;;2.20;1.50;;;7.50;99.90;;;8.28;100.00;99656.91;5500507;26;20465;-75
2024/04/12 04:50:46;;;;;;;1.47;1.30;;;7.40;99.90;;;8.24;100.00;99655.53;5495842;26;20472;-76
2024/04/12 04:53:14;;;;;;;3.77;1.70;;;7.30;99.90;;;8.18;100.00;99656.88;5501961;26;20603;-75
2024/04/12 04:55:48;;;;;;;6.63;1.90;;;7.20;99.90;;;8.11;100.00;99660.97;5499334;25;20553;-76
2024/04/12 04:58:21;;;;;;;2.77;1.67;;;7.10;99.90;;;8.13;100.00;99666.84;5497070;25;21086;-75
2024/04/12 05:00:52;;;;;;;4.37;2.00;;;7.20;99.90;;;8.14;100.00;99665.09;5497988;26;20597;-75
2024/04/12 05:03:20;;;;;;;3.97;1.30;;;7.10;99.90;;;8.23;100.00;99656.47;5499344;26;20472;-76
2024/04/12 05:05:52;;;;;;;2.90;1.60;;;7.30;99.90;;;8.27;100.00;99656.06;5500723;25;21076;-76
2024/04/12 05:08:20;;;;;;;5.03;1.70;;;7.30;99.90;;;8.28;100.00;99657.78;5501661;26;21093;-75
2024/04/12 05:10:52;;;;;;;6.70;1.77;;;7.30;99.90;;;8.24;100.00;99658.94;5496714;26;20553;-75
2024/04/12 05:13:25;;;;;;;4.27;2.00;;;7.30;99.90;;;8.31;100.00;99667.94;5496273;26;20463;-76
2024/04/12 05:15:56;;;;;;;2.13;1.50;;;7.40;99.90;;;8.26;100.00;99667.44;5497972;26;20470;-76
2024/04/12 05:18:24;;;;;;;8.80;1.50;;;7.30;99.90;;;8.21;100.00;99663.59;5498302;26;20486;-75
2024/04/12 05:20:57;;;;;;;9.43;2.10;;;7.30;99.90;;;8.23;100.00;99667.72;5496584;26;20473;-75
2024/04/12 05:23:28;;;;;;;3.10;1.80;;;7.30;99.90;;;8.20;100.00;99662.78;5496778;26;20553;-75
2024/04/12 05:26:02;;;;;;;11.97;1.80;;;7.30;99.90;;;8.24;100.00;99668.56;5496670;25;20478;-75
2024/04/12 05:28:32;;;;;;;2.17;1.80;;;7.30;99.90;;;8.26;100.00;99675.28;5497026;26;20476;-75
2024/04/12 05:31:03;;;;;;;3.30;1.83;;;7.30;99.90;;;8.30;100.00;99674.09;5496162;25;20528;-75
2024/04/12 05:33:33;;;;;;;2.13;1.60;;;7.30;99.90;;;8.36;100.00;99680.56;5493604;26;20575;-75
2024/04/12 05:36:09;;;;;;;4.00;2.07;;;7.40;99.90;;;8.41;100.00;99689.63;5497094;26;20480;-76
2024/04/12 05:38:38;;;;;;;2.23;1.77;;;7.40;99.90;;;8.48;100.00;99680.31;5496261;25;20564;-75
2024/04/12 05:41:09;;;;;;;4.67;1.73;;;7.50;99.90;;;8.53;100.00;99679.94;5497002;26;20837;-75
2024/04/12 05:43:39;;;;;;;7.60;1.73;;;7.60;99.90;;;8.63;100.00;99678.16;5497412;26;20590;-76
2024/04/12 05:46:10;;;;;;;2.57;1.90;;;7.70;99.90;;;8.61;100.00;99682.66;5497215;26;20548;-76
2024/04/12 05:48:39;;;;;;;3.80;2.23;;;7.80;99.90;;;8.67;100.00;99686.53;5501099;25;21360;-76
2024/04/12 05:51:11;;;;;;;4.53;1.80;;;7.80;99.90;;;8.72;100.00;99687.78;5499933;26;20816;-75
2024/04/12 05:53:39;;;;;;;3.70;2.00;;;7.80;99.90;;;8.79;100.00;99680.22;5496957;26;20801;-76
2024/04/12 05:56:25;;;;;;;4.07;2.13;;;7.90;99.90;;;8.83;100.00;99676.41;5492097;26;20611;-75
2024/04/12 05:58:56;;;;;;;5.53;2.10;;;7.90;99.90;;;8.90;100.00;99680.13;5493062;26;20497;-75
2024/04/12 06:01:32;;;;;;;6.33;1.53;;;8.00;99.90;;;8.95;100.00;99667.50;5498524;26;20605;-75
2024/04/12 06:04:01;;;;;;;2.27;2.00;;;8.10;99.90;;;9.02;100.00;99676.44;5499440;26;20483;-75
2024/04/12 06:06:33;;;;;;;3.60;2.10;;;8.10;99.90;;;9.01;100.00;99677.38;5496726;25;20480;-75
2024/04/12 06:09:05;;;;;;;9.10;2.10;;;8.10;99.90;;;9.07;100.00;99680.28;5498330;26;20474;-76
2024/04/12 06:11:42;;;;;;;3.97;1.83;;;8.20;99.90;;;9.14;100.00;99684.94;5498780;25;20611;-75
2024/04/12 06:14:14;;;;;;;3.70;1.80;;;8.20;99.90;;;9.21;100.00;99686.84;5496705;26;20482;-75
2024/04/12 06:16:45;;;;;;;4.63;2.07;;;8.30;99.90;;;9.28;100.00;99693.19;5499515;26;20485;-75
2024/04/12 06:19:14;;;;;;;2.03;1.83;;;8.40;99.90;;;9.36;100.00;99693.31;5497657;26;20471;-75
2024/04/12 06:21:46;;;;;;;7.20;2.47;;;8.50;99.90;;;9.38;100.00;99691.38;5497203;26;20467;-75
2024/04/12 06:24:16;;;;;;;3.67;2.17;;;8.50;99.90;;;9.47;100.00;99681.91;5497371;25;20480;-75
2024/04/12 06:26:49;;;;;;;3.90;2.33;;;8.60;99.90;;;9.54;100.00;99686.41;5497079;26;20495;-76
2024/04/12 06:29:20;;;;;;;4.10;2.03;;;8.70;99.90;;;9.58;100.00;99679.94;5494160;25;20489;-76
2024/04/12 06:32:06;;;;;;;6.33;1.97;;;8.80;99.90;;;9.64;100.00;99678.56;5496203;26;20583;-75
2024/04/12 06:34:37;;;;;;;3.90;1.77;;;8.80;99.90;;;9.69;100.00;99680.75;5494392;26;20527;-75
2024/04/12 06:37:09;;;;;;;3.47;1.83;;;8.80;99.90;;;9.77;100.00;99680.88;5495679;26;20473;-76
2024/04/12 06:39:37;;;;;;;4.87;2.30;;;8.90;99.90;;;9.82;100.00;99684.69;5495021;26;20644;-75
2024/04/12 06:42:08;;;;;;;2.80;1.77;;;8.90;99.90;;;9.85;100.00;99688.84;5494926;26;20478;-76
2024/04/12 06:44:42;;;;;;;6.80;2.30;;;8.90;99.90;;;9.91;100.00;99685.66;5494922;26;21080;-76
2024/04/12 06:47:18;;;;;;;4.20;2.10;;;9.00;99.90;;;9.98;100.00;99681.50;5498714;26;20468;-76
2024/04/12 06:49:46;;;;;;;4.83;1.90;;;9.10;99.90;;;10.05;100.00;99687.81;5495316;25;20597;-75
2024/04/12 06:52:20;;;;;;;2.40;1.70;;;9.10;99.90;;;10.10;100.00;99690.81;5498457;25;20481;-76
2024/04/12 06:54:49;;;;;;;3.50;2.10;;;9.20;99.90;;;10.18;100.00;99690.94;5498724;26;20489;-75
2024/04/12 06:57:22;;;;;;;3.57;2.30;;;9.30;99.90;;;10.24;100.00;99690.38;5497981;26;20485;-76
2024/04/12 06:59:53;;;;;;;4.23;2.20;;;9.40;99.90;;;10.28;100.00;99688.28;5493629;26;21046;-75
2024/04/12 07:02:29;;;;;;;4.83;2.33;;;9.40;99.90;;;10.34;100.00;99693.78;5498110;26;20472;-76
2024/04/12 07:05:00;;;;;;;4.83;2.50;;;9.40;99.90;;;10.41;100.00;99684.38;5494466;26;20479;-75
2024/04/12 07:07:32;;;;;;;3.73;2.00;;;9.50;99.90;;;10.48;100.00;99693.28;5497418;26;20477;-76
2024/04/12 07:10:01;;;;;;;11.37;2.40;;;9.60;99.90;;;10.54;100.00;99687.47;5501060;26;20547;-76
2024/04/12 07:12:33;;;;;;;5.60;2.13;;;9.70;99.90;;;10.57;100.00;99684.56;5499742;25;20551;-76
2024/04/12 07:15:09;;;;;;;4.47;2.30;;;9.70;99.90;;;10.64;100.00;99682.19;5496091;26;21012;-75
2024/04/12 07:17:41;;;;;;;3.30;2.13;;;9.70;99.90;;;10.72;100.00;99684.06;5494454;26;20531;-75
2024/04/12 07:20:13;;;;;;;5.00;2.20;;;9.90;99.90;;;10.80;100.00;99684.16;5493865;26;20482;-76
2024/04/12 07:22:45;;;;;;;3.17;1.90;;;9.90;99.90;;;10.85;100.00;99680.13;5495811;26;20483;-75
2024/04/12 07:25:15;;;;;;;6.50;2.17;;;10.00;99.90;;;10.94;100.00;99681.03;5495357;26;20483;-76
2024/04/12 07:27:47;;;;;;;3.03;2.00;;;10.10;99.90;;;11.01;100.00;99687.31;5494671;25;20524;-76
2024/04/12 07:30:20;;;;;;;6.13;2.17;;;10.20;99.90;;;11.05;100.00;99688.66;5498794;26;20530;-76
2024/04/12 07:32:52;;;;;;;3.67;2.00;;;10.20;99.90;;;11.08;100.00;99689.19;5497665;26;20585;-75
2024/04/12 07:35:24;;;;;;;8.20;2.17;;;10.20;99.90;;;11.15;100.00;99691.19;5494146;25;20531;-76
2024/04/12 07:37:59;;;;;;;6.00;2.37;;;10.30;99.90;;;11.19;100.00;99692.53;5496440;25;20515;-75
2024/04/12 07:40:34;;;;;;;7.97;1.90;;;10.30;99.90;;;11.23;100.00;99686.88;5499204;26;20536;-76
2024/04/12 07:43:11;;;;;;;7.20;1.80;;;10.30;99.90;;;11.33;100.00;99686.78;5497618;26;20472;-76
2024/04/12 07:45:49;;;;;;;7.20;2.50;;;10.40;99.90;;;11.37;100.00;99688.94;5495585;26;20491;-76
2024/04/12 07:48:27;;;;;;;3.03;2.00;;;10.50;99.90;;;11.44;100.00;99689.16;5493929;25;20541;-75
2024/04/12 07:51:00;;;;;;;10.60;2.47;;;10.50;99.90;;;11.52;100.00;99681.38;5497462;26;20622;-76
2024/04/12 07:53:34;;;;;;;4.13;1.67;;;10.60;99.90;;;11.57;100.00;99679.94;5493337;26;20466;-76
2024/04/12 07:56:08;;;;;;;5.10;2.10;;;10.70;99.90;;;11.61;100.00;99683.91;5496994;26;20483;-75
2024/04/12 07:58:40;;;;;;;4.00;1.80;;;10.70;99.90;;;11.68;100.00;99675.41;5496371;26;20580;-75
2024/04/12 08:01:16;;;;;;;6.30;3.33;;;10.80;99.90;;;11.74;100.00;99680.06;5495630;26;21029;-76
2024/04/12 08:03:50;;;;;;;7.33;2.40;;;10.90;99.90;;;11.78;100.00;99681.41;5490953;26;20475;-75
2024/04/12 08:06:19;;;;;;;3.30;2.20;;;11.00;99.90;;;11.84;100.00;99678.16;5495367;26;21244;-75
2024/04/12 08:09:03;;;;;;;4.07;2.50;;;11.10;99.90;;;11.89;100.00;99678.53;5494442;26;20536;-76
2024/04/12 08:11:34;;;;;;;8.63;3.00;;;11.10;99.90;;;11.97;100.00;99671.56;5494157;26;20555;-75
2024/04/12 08:14:08;;;;;;;5.20;2.40;;;11.20;99.90;;;12.03;100.00;99670.91;5497648;25;20589;-75
2024/04/12 08:16:46;;;;;;;5.70;2.20;;;11.30;99.90;;;12.09;100.00;99674.72;5492550;26;20538;-76
2024/04/12 08:19:21;;;;;;;5.57;2.33;;;11.40;99.90;;;12.15;100.00;99681.94;5494069;26;20530;-76
2024/04/12 08:21:54;;;;;;;5.40;2.03;;;11.50;99.90;;;12.22;100.00;99684.78;5496548;26;20817;-76
2024/04/12 08:24:27;;;;;;;3.20;1.80;;;11.60;99.90;;;12.29;100.00;99680.53;5492565;26;20672;-76
2024/04/12 08:26:57;;;;;;;4.20;2.13;;;11.60;99.90;;;12.39;100.00;99676.81;5494269;26;20564;-76
2024/04/12 08:29:28;;;;;;;5.40;2.10;;;11.60;99.90;;;12.46;100.00;99690.94;5495568;26;20484;-76
2024/04/12 08:32:11;;;;;;;7.73;2.17;;;11.60;99.90;;;12.52;100.00;99687.69;5492844;25;20472;-75
2024/04/12 08:34:44;;;;;;;5.30;2.40;;;11.80;99.90;;;12.63;100.00;99688.38;5490987;26;20487;-76
2024/04/12 08:37:18;;;;;;;11.40;2.80;;;11.80;99.90;;;12.70;100.00;99690.22;5496547;26;20495;-75
2024/04/12 08:39:52;;;;;;;8.53;2.67;;;11.90;99.90;;;12.79;100.00;99691.03;5493178;26;20483;-76
2024/04/12 08:42:28;;;;;;;3.70;2.53;;;12.00;99.90;;;12.87;100.00;99686.66;5494425;26;21067;-76
2024/04/12 08:44:59;;;;;;;5.30;2.27;;;12.10;99.90;;;12.96;100.00;99695.34;5494483;26;20490;-76
2024/04/12 08:47:38;;;;;;;8.27;3.57;;;12.20;99.90;;;13.04;100.00;99687.50;5495908;26;20471;-76
2024/04/12 08:50:07;;;;;;;5.50;2.30;;;12.30;99.90;;;13.10;100.00;99681.63;5490574;26;20479;-76
2024/04/12 08:52:47;;;;;;;4.53;2.10;;;12.40;99.90;;;13.17;100.00;99684.41;5496035;26;20482;-76
2024/04/12 08:55:20;;;;;;;4.60;1.77;;;12.50;99.90;;;13.25;100.00;99672.13;5495471;26;21011;-75
2024/04/12 08:57:56;;;;;;;4.33;2.20;;;12.60;99.90;;;13.34;100.00;99679.00;5491832;26;21337;-75
2024/04/12 09:00:28;;;;;;;2.90;1.93;;;12.70;99.90;;;13.44;100.00;99681.47;5494075;25;21070;-76
2024/04/12 09:03:10;;;;;;;4.83;2.07;;;12.70;99.90;;;13.53;100.00;99673.44;5493798;26;20530;-76
2024/04/12 09:05:42;;;;;;;3.10;1.90;;;12.80;99.90;;;13.65;100.00;99675.69;5493598;26;20498;-76
2024/04/12 09:08:17;;;;;;;6.00;2.20;;;12.90;99.90;;;13.72;100.00;99661.72;5492357;26;20564;-76
2024/04/12 09:10:46;;;;;;;4.50;2.03;;;13.00;99.90;;;13.79;100.00;99667.13;5495771;26;20530;-76
2024/04/12 09:13:19;;;;;;;5.90;2.10;;;13.00;99.90;;;13.87;100.00;99672.38;5490995;25;20515;-75
2024/04/12 09:15:50;;;;;;;2.50;1.80;;;13.10;99.90;;;13.95;100.00;99673.16;5499502;26;20526;-76
2024/04/12 09:18:37;;;;;;;5.17;2.40;;;13.20;99.90;;;14.03;100.00;99669.69;5496761;26;20483;-76
2024/04/12 09:21:14;;;;;;;4.70;2.03;;;13.30;99.90;;;14.11;100.00;99672.31;5499375;25;20478;-76
2024/04/12 09:23:50;;;;;;;5.03;2.00;;;13.30;99.90;;;14.19;100.00;99664.41;5494437;26;20470;-76
2024/04/12 09:26:24;;;;;;;3.83;1.47;;;13.40;99.90;;;14.26;100.00;99670.63;5499127;26;20473;-76
2024/04/12 09:29:09;;;;;;;4.23;2.10;;;13.50;99.90;;;14.33;100.00;99668.97;5497617;26;20533;-76
2024/04/12 09:34:35;;;;;;;7.07;2.00;;;13.70;99.90;;;14.50;100.00;99675.00;5499745;26;20488;-76
2024/04/12 09:40:04;;;;;;;2.80;1.60;;;13.90;99.90;;;14.66;100.00;99677.53;5498218;26;21023;-76
2024/04/12 09:43:00;;;;;;;3.00;1.50;;;14.00;99.90;;;14.76;100.00;99672.03;5498266;26;20533;-76
2024/04/12 09:45:45;;;;;;;2.80;1.37;;;14.10;99.90;;;14.84;100.00;99678.09;5495980;26;20478;-77
2024/04/12 10:39:33;;;;;;;2.83;1.53;;;15.40;99.90;;;16.23;100.00;99652.16;5497348;26;20564;-76
2024/04/12 10:42:07;;;;;;;2.43;1.10;;;15.60;99.90;;;16.28;100.00;99655.88;5498674;25;21174;-76
2024/04/12 10:44:37;;;;;;;2.50;1.60;;;15.50;99.90;;;16.34;100.00;99649.88;5496632;26;20486;-76
2024/04/12 10:47:12;;;;;;;2.17;1.30;;;15.60;99.90;;;16.43;100.00;99658.50;5493701;26;20782;-76
2024/04/12 10:49:43;;;;;;;3.30;1.50;;;15.70;99.90;;;16.51;100.00;99656.59;5492945;26;20546;-76
2024/04/12 10:52:14;;;;;;;2.43;1.43;;;15.80;99.90;;;16.56;100.00;99659.50;5496853;26;20590;-76
2024/04/12 10:54:42;;;;;;;7.90;1.47;;;15.80;99.90;;;16.63;100.00;99656.94;5496727;26;20583;-76
2024/04/12 10:57:16;;;;;;;2.37;1.23;;;15.90;99.90;;;16.69;100.00;99652.75;5496515;25;21436;-76
2024/04/12 10:59:43;;;;;;;1.20;0.93;;;15.90;99.90;;;16.77;100.00;99647.34;5498623;26;20477;-76
2024/04/12 11:02:15;;;;;;;2.50;1.40;;;16.10;99.90;;;16.83;100.00;99655.34;5496352;26;20579;-75
2024/04/12 11:07:32;;;;;;;2.73;1.50;;;16.20;99.90;;;16.95;100.00;99653.00;5496284;26;21009;-76
2024/04/12 11:10:03;;;;;;;3.20;1.70;;;16.30;99.90;;;17.02;100.00;99659.19;5495129;26;20472;-76
2024/04/12 11:12:40;;;;;;;1.93;1.27;;;16.40;99.90;;;17.08;100.00;99663.72;5491417;26;21098;-76
2024/04/12 11:31:06;;;;;;;1.20;1.00;;;16.40;99.90;;;17.13;100.00;99658.69;5493014;26;21609;-77
2024/04/12 11:32:12;;;;;;;2.13;1.57;;;16.50;99.90;;;17.38;100.00;99652.00;5494826;26;20528;-76
2024/04/12 11:34:45;;;;;;;3.50;1.20;;;16.70;99.90;;;17.43;100.00;99646.13;5496119;26;20477;-76
2024/04/12 11:37:16;;;;;;;2.10;1.17;;;16.70;99.90;;;17.47;100.00;99650.84;5495347;26;20479;-76
2024/04/12 11:39:45;;;;;;;4.73;1.50;;;16.80;99.90;;;17.49;100.00;99640.09;5493392;26;20537;-77
2024/04/12 11:42:18;;;;;;;3.00;1.60;;;16.80;99.90;;;17.51;100.00;99646.81;5493388;26;20539;-76
2024/04/12 11:44:53;;;;;;;2.17;1.33;;;16.80;99.90;;;17.54;100.00;99638.50;5497115;26;20469;-76
2024/04/12 11:47:23;;;;;;;2.20;1.30;;;16.80;99.90;;;17.57;100.00;99642.59;5495420;26;20472;-77
2024/04/12 11:49:57;;;;;;;3.23;1.27;;;16.90;99.90;;;17.63;100.00;99641.84;5493052;25;20815;-76
2024/04/12 11:52:26;;;;;;;4.30;1.30;;;17.00;99.90;;;17.61;100.00;99641.22;5496224;26;20560;-75
2024/04/12 11:54:59;;;;;;;5.27;2.07;;;16.90;99.90;;;17.64;100.00;99642.66;5492485;26;20583;-76
2024/04/12 11:57:27;;;;;;;2.80;1.70;;;17.00;99.90;;;17.65;100.00;99634.53;5494132;26;20475;-77